Time;durP1;ratioP1;P1;durP2;ratioP2;P2;SDS_P1;SDS_P2;PMS_P1;PMS_P2;Temp;Humidity;BMP_temperature;BMP_pressure;BME280_temperature;BME280_humidity;BME280_pressure;Samples;Min_cycle;Max_cycle;Signal;HPM_P1;HPM_P2
2022/08/30 00:02:28;;;;;;;6.78;2.38;;;19.50;99.90;;;;;;5031808;28;20756;-47
2022/08/30 00:04:54;;;;;;;4.32;2.63;;;19.50;99.90;;;;;;5031468;28;20171;-47
2022/08/30 00:07:21;;;;;;;5.72;2.55;;;19.50;99.90;;;;;;5031723;28;20657;-47
2022/08/30 00:09:46;;;;;;;4.80;2.72;;;19.60;99.90;;;;;;5031653;28;20529;-47
2022/08/30 00:12:12;;;;;;;9.02;3.00;;;19.50;99.90;;;;;;5031546;28;20171;-46
2022/08/30 00:14:38;;;;;;;8.18;3.42;;;19.50;99.90;;;;;;5031837;28;20234;-46
2022/08/30 00:17:04;;;;;;;13.05;2.88;;;19.50;99.90;;;;;;5031644;28;20205;-46
2022/08/30 00:19:29;;;;;;;6.88;2.40;;;19.40;99.90;;;;;;5031839;28;20180;-47
2022/08/30 00:21:55;;;;;;;6.80;3.00;;;19.40;99.90;;;;;;5031660;28;20187;-50
2022/08/30 00:24:21;;;;;;;8.07;2.47;;;19.40;99.90;;;;;;5031663;28;20218;-51
2022/08/30 00:26:46;;;;;;;13.45;3.22;;;19.40;99.90;;;;;;5031695;28;20171;-51
2022/08/30 00:29:12;;;;;;;10.98;3.45;;;19.40;99.90;;;;;;5031567;28;20183;-51
2022/08/30 00:31:38;;;;;;;12.32;3.60;;;19.30;99.90;;;;;;5032125;28;20226;-50
2022/08/30 00:34:04;;;;;;;12.88;2.88;;;19.30;99.90;;;;;;5031549;28;20642;-51
2022/08/30 00:36:29;;;;;;;13.07;3.33;;;19.30;99.90;;;;;;5031562;28;20907;-52
2022/08/30 00:38:55;;;;;;;12.82;2.95;;;19.20;99.90;;;;;;5031529;28;20252;-51
2022/08/30 00:41:21;;;;;;;9.65;3.10;;;19.20;99.90;;;;;;5031487;28;20172;-51
2022/08/30 00:43:47;;;;;;;11.05;3.08;;;19.20;99.90;;;;;;5031623;28;20207;-51
2022/08/30 00:46:12;;;;;;;11.35;3.45;;;19.10;99.90;;;;;;5033926;28;20167;-50
2022/08/30 00:48:43;;;;;;;9.88;3.30;;;19.10;99.90;;;;;;5035487;28;20202;-51
2022/08/30 00:51:12;;;;;;;7.32;2.67;;;19.10;99.90;;;;;;5034262;28;20167;-51
2022/08/30 00:53:42;;;;;;;8.18;2.80;;;19.00;99.90;;;;;;5035511;28;20175;-51
2022/08/30 00:56:09;;;;;;;7.10;2.88;;;19.00;99.90;;;;;;5035496;28;20175;-51
2022/08/30 00:58:38;;;;;;;6.97;2.83;;;19.10;99.90;;;;;;5035452;28;20167;-52
2022/08/30 01:01:06;;;;;;;15.75;3.33;;;19.00;99.90;;;;;;5035018;28;20547;-52
2022/08/30 01:03:32;;;;;;;7.00;2.63;;;19.00;99.90;;;;;;5035121;28;20543;-52
2022/08/30 01:05:59;;;;;;;5.63;3.25;;;19.00;99.90;;;;;;5035006;28;20163;-51
2022/08/30 01:08:26;;;;;;;7.65;3.25;;;18.90;99.90;;;;;;5035120;28;20221;-51
2022/08/30 01:10:52;;;;;;;9.10;2.75;;;18.80;99.90;;;;;;5035071;28;20199;-51
2022/08/30 01:13:21;;;;;;;7.78;2.85;;;18.80;99.90;;;;;;5034634;28;20654;-51
2022/08/30 01:15:48;;;;;;;9.63;2.83;;;18.70;99.90;;;;;;5034727;28;20191;-51
2022/08/30 01:18:16;;;;;;;22.65;3.25;;;18.60;99.90;;;;;;5034741;28;20168;-51
2022/08/30 01:21:09;;;;;;;21.98;3.78;;;18.70;99.90;;;;;;5034860;28;20272;-51
2022/08/30 01:23:37;;;;;;;15.55;2.88;;;18.70;99.90;;;;;;5033172;28;20211;-51
2022/08/30 01:26:04;;;;;;;8.95;2.80;;;18.70;99.90;;;;;;5034587;28;20166;-50
2022/08/30 01:28:31;;;;;;;9.60;2.92;;;18.60;99.90;;;;;;5034726;28;20175;-51
2022/08/30 01:30:57;;;;;;;4.03;2.55;;;18.70;99.90;;;;;;5034391;28;20239;-51
2022/08/30 01:33:23;;;;;;;10.95;3.78;;;18.70;99.90;;;;;;5034754;28;20601;-50
2022/08/30 01:36:02;;;;;;;4.03;2.88;;;18.70;99.90;;;;;;5034620;28;20179;-51
2022/08/30 01:38:38;;;;;;;20.70;3.63;;;18.60;99.90;;;;;;5034513;28;20199;-51
2022/08/30 01:41:14;;;;;;;14.18;2.65;;;18.60;99.90;;;;;;5034212;28;20646;-50
2022/08/30 01:43:40;;;;;;;8.77;3.00;;;18.60;99.90;;;;;;5034452;28;20218;-50
2022/08/30 01:46:06;;;;;;;10.02;2.97;;;18.60;99.90;;;;;;5034621;28;20202;-50
2022/08/30 01:48:33;;;;;;;9.25;2.50;;;18.60;99.90;;;;;;5034359;28;20509;-51
2022/08/30 01:50:59;;;;;;;5.25;2.65;;;18.60;99.90;;;;;;5034343;28;20183;-50
2022/08/30 01:53:25;;;;;;;3.83;2.60;;;18.50;99.90;;;;;;5033818;28;20258;-50
2022/08/30 01:55:50;;;;;;;4.60;2.50;;;18.40;99.90;;;;;;5034110;28;20199;-50
2022/08/30 01:58:16;;;;;;;7.60;2.72;;;18.50;99.90;;;;;;5033993;28;20178;-50
2022/08/30 02:00:41;;;;;;;4.90;2.53;;;18.50;99.90;;;;;;5033883;28;20171;-51
2022/08/30 02:03:07;;;;;;;5.60;2.97;;;18.40;99.90;;;;;;5034084;28;20256;-50
2022/08/30 02:05:33;;;;;;;4.13;2.42;;;18.40;99.90;;;;;;5033526;28;20168;-47
2022/08/30 02:07:59;;;;;;;6.63;2.85;;;18.40;99.90;;;;;;5033864;28;20182;-47
2022/08/30 02:10:24;;;;;;;11.63;2.85;;;18.40;99.90;;;;;;5033621;28;20301;-47
2022/08/30 02:12:50;;;;;;;6.57;3.10;;;18.40;99.90;;;;;;5033485;28;20214;-48
2022/08/30 02:15:16;;;;;;;3.70;2.88;;;18.40;99.90;;;;;;5033606;28;20190;-48
2022/08/30 02:17:43;;;;;;;6.78;3.10;;;18.40;99.90;;;;;;5033482;28;20254;-47
2022/08/30 02:20:09;;;;;;;4.63;2.60;;;18.40;99.90;;;;;;5033891;28;20175;-47
2022/08/30 02:22:35;;;;;;;4.45;2.72;;;18.40;99.90;;;;;;5033721;28;20210;-47
2022/08/30 02:25:00;;;;;;;4.53;2.88;;;18.30;99.90;;;;;;5033377;28;20160;-48
2022/08/30 02:27:26;;;;;;;4.20;2.83;;;18.30;99.90;;;;;;5033440;28;20172;-48
2022/08/30 02:29:52;;;;;;;5.80;3.25;;;18.30;99.90;;;;;;5033222;28;20175;-47
2022/08/30 02:32:18;;;;;;;5.07;2.70;;;18.30;99.90;;;;;;5033182;28;20171;-47
2022/08/30 02:34:44;;;;;;;3.28;2.90;;;18.30;99.90;;;;;;5033142;28;20171;-47
2022/08/30 02:37:09;;;;;;;4.40;2.63;;;18.30;99.90;;;;;;5033783;28;20167;-47
2022/08/30 02:39:35;;;;;;;6.40;2.70;;;18.30;99.90;;;;;;5033466;28;20171;-47
2022/08/30 02:42:01;;;;;;;5.47;3.03;;;18.30;99.90;;;;;;5033082;28;20191;-47
2022/08/30 02:44:27;;;;;;;6.57;2.60;;;18.30;99.90;;;;;;5033296;28;20237;-47
2022/08/30 02:46:52;;;;;;;5.07;2.65;;;18.30;99.90;;;;;;5032970;28;20168;-47
2022/08/30 02:49:18;;;;;;;5.80;3.10;;;18.20;99.90;;;;;;5032989;28;20301;-47
2022/08/30 02:51:43;;;;;;;6.53;3.20;;;18.20;99.90;;;;;;5032500;28;20172;-47
2022/08/30 02:54:14;;;;;;;5.70;3.00;;;18.20;99.90;;;;;;5033290;28;20167;-47
2022/08/30 02:56:41;;;;;;;6.05;2.97;;;18.20;99.90;;;;;;5032797;28;20155;-47
2022/08/30 02:59:06;;;;;;;4.10;2.78;;;18.10;99.90;;;;;;5033089;28;20175;-47
2022/08/30 03:01:35;;;;;;;4.93;2.97;;;18.10;99.90;;;;;;5032782;28;20159;-47
2022/08/30 03:04:00;;;;;;;7.07;3.28;;;18.10;99.90;;;;;;5032604;28;20206;-47
2022/08/30 03:06:26;;;;;;;7.20;3.22;;;18.10;99.90;;;;;;5032588;28;20540;-47
2022/08/30 03:08:52;;;;;;;5.85;2.70;;;18.10;99.90;;;;;;5032132;28;20182;-47
2022/08/30 03:11:18;;;;;;;3.83;2.67;;;18.00;99.90;;;;;;5032599;28;20677;-47
2022/08/30 03:13:43;;;;;;;8.98;2.78;;;18.00;99.90;;;;;;5032145;28;20215;-47
2022/08/30 03:16:09;;;;;;;8.85;3.28;;;18.00;99.90;;;;;;5032729;28;20206;-51
2022/08/30 03:18:34;;;;;;;6.50;3.05;;;17.80;99.90;;;;;;5032728;28;20623;-47
2022/08/30 03:21:00;;;;;;;5.93;2.92;;;17.80;99.90;;;;;;5032443;28;20643;-51
2022/08/30 03:23:26;;;;;;;5.53;3.28;;;17.80;99.90;;;;;;5031782;28;20264;-50
2022/08/30 03:25:52;;;;;;;4.40;2.95;;;17.70;99.90;;;;;;5032138;28;20167;-47
2022/08/30 03:28:18;;;;;;;6.38;2.70;;;17.80;99.90;;;;;;5032281;28;20520;-51
2022/08/30 03:30:43;;;;;;;7.03;3.17;;;17.80;99.90;;;;;;5032153;28;20168;-51
2022/08/30 03:33:09;;;;;;;13.10;3.10;;;17.70;99.90;;;;;;5032345;28;20182;-51
2022/08/30 03:35:34;;;;;;;4.63;2.47;;;17.70;99.90;;;;;;5032460;28;20160;-50
2022/08/30 03:38:00;;;;;;;5.20;3.30;;;17.70;99.90;;;;;;5032150;28;20189;-50
2022/08/30 03:40:25;;;;;;;8.68;2.95;;;17.70;99.90;;;;;;5032032;28;20178;-50
2022/08/30 03:42:51;;;;;;;6.72;2.67;;;17.70;99.90;;;;;;5031940;28;20637;-51
2022/08/30 03:45:18;;;;;;;4.78;2.95;;;17.70;99.90;;;;;;5032082;28;20171;-51
2022/08/30 03:47:44;;;;;;;4.82;3.25;;;17.60;99.90;;;;;;5031939;28;20241;-51
2022/08/30 03:50:12;;;;;;;5.47;2.72;;;17.60;99.90;;;;;;5031946;28;20167;-50
2022/08/30 03:52:38;;;;;;;7.32;3.58;;;17.60;99.90;;;;;;5032266;28;20174;-51
2022/08/30 03:55:04;;;;;;;7.03;3.13;;;17.60;99.90;;;;;;5031972;28;20199;-51
2022/08/30 03:57:31;;;;;;;8.63;3.05;;;17.60;99.90;;;;;;5031856;28;20187;-51
2022/08/30 03:59:57;;;;;;;5.22;3.08;;;17.60;99.90;;;;;;5030542;28;20178;-51
2022/08/30 04:02:22;;;;;;;5.80;2.95;;;17.50;99.90;;;;;;5031746;28;20234;-51
2022/08/30 04:04:48;;;;;;;5.00;2.85;;;17.50;99.90;;;;;;5031842;28;20577;-51
2022/08/30 04:07:14;;;;;;;3.65;2.75;;;17.50;99.90;;;;;;5031769;28;20175;-51
2022/08/30 04:09:40;;;;;;;7.50;3.17;;;17.50;99.90;;;;;;5031739;28;20167;-50
2022/08/30 04:12:06;;;;;;;5.85;3.10;;;17.50;99.90;;;;;;5032260;28;20178;-51
2022/08/30 04:14:32;;;;;;;5.10;2.80;;;17.50;99.90;;;;;;5031491;28;20219;-50
2022/08/30 04:16:57;;;;;;;6.95;3.47;;;17.50;99.90;;;;;;5031727;28;20198;-50
2022/08/30 04:19:23;;;;;;;6.10;3.35;;;17.30;99.90;;;;;;5031705;28;20509;-51
2022/08/30 04:21:49;;;;;;;5.35;3.00;;;17.20;99.90;;;;;;5035343;28;20167;-51
2022/08/30 04:24:15;;;;;;;8.35;3.90;;;17.10;99.90;;;;;;5035621;28;20253;-51
2022/08/30 04:26:41;;;;;;;6.38;3.47;;;17.20;99.90;;;;;;5035658;28;20704;-51
2022/08/30 04:29:06;;;;;;;5.40;3.00;;;17.20;99.90;;;;;;5035961;28;20163;-51
2022/08/30 04:31:32;;;;;;;6.78;3.47;;;17.30;99.90;;;;;;5035487;28;20195;-51
2022/08/30 04:33:58;;;;;;;5.75;3.65;;;17.30;99.90;;;;;;5035608;28;20175;-51
2022/08/30 04:36:23;;;;;;;4.68;3.53;;;17.30;99.90;;;;;;5035400;28;20163;-51
2022/08/30 04:38:49;;;;;;;7.85;3.22;;;17.30;99.90;;;;;;5035327;28;20187;-50
2022/08/30 04:41:16;;;;;;;6.38;3.20;;;17.40;99.90;;;;;;5035365;28;20174;-51
2022/08/30 04:43:44;;;;;;;9.80;3.28;;;17.50;99.90;;;;;;5035203;28;20211;-50
2022/08/30 04:46:12;;;;;;;4.80;3.45;;;17.50;99.90;;;;;;5035559;28;20171;-50
2022/08/30 04:48:38;;;;;;;5.60;3.53;;;17.50;99.90;;;;;;5035553;28;20658;-48
2022/08/30 04:51:09;;;;;;;5.95;4.18;;;16.50;99.90;;;;;;5035459;28;20175;-51
2022/08/30 04:53:35;;;;;;;10.38;3.58;;;17.60;99.90;;;;;;5035243;28;20159;-50
2022/08/30 04:56:06;;;;;;;8.23;3.65;;;17.60;99.90;;;;;;5034886;28;20237;-50
2022/08/30 04:58:32;;;;;;;5.38;3.10;;;17.60;99.90;;;;;;5034930;28;20529;-50
2022/08/30 05:00:57;;;;;;;6.07;3.72;;;17.70;99.90;;;;;;5034781;28;20180;-50
2022/08/30 05:03:23;;;;;;;4.30;3.38;;;17.70;99.90;;;;;;5035020;28;20199;-50
2022/08/30 05:05:49;;;;;;;4.95;3.33;;;17.70;99.90;;;;;;5034725;28;20225;-50
2022/08/30 05:08:19;;;;;;;4.30;3.63;;;17.70;99.90;;;;;;5034750;28;20171;-47
2022/08/30 05:10:48;;;;;;;7.05;3.58;;;17.80;99.90;;;;;;5035032;28;20566;-47
2022/08/30 05:13:14;;;;;;;7.55;3.40;;;17.80;99.90;;;;;;5034057;28;20218;-47
2022/08/30 05:15:41;;;;;;;6.97;3.35;;;17.80;99.90;;;;;;5033509;28;20239;-48
2022/08/30 05:18:08;;;;;;;5.53;3.03;;;17.80;99.90;;;;;;5033804;28;20210;-47
2022/08/30 05:20:35;;;;;;;6.57;3.10;;;17.80;99.90;;;;;;5033707;28;20661;-46
2022/08/30 05:23:00;;;;;;;6.30;3.35;;;17.80;99.90;;;;;;5033507;28;20285;-47
2022/08/30 05:25:29;;;;;;;6.88;3.67;;;17.90;99.90;;;;;;5033328;28;20676;-47
2022/08/30 05:27:56;;;;;;;4.65;3.50;;;18.00;99.90;;;;;;5033299;28;20175;-47
2022/08/30 05:30:23;;;;;;;4.70;3.65;;;18.00;99.90;;;;;;5033214;28;20602;-47
2022/08/30 05:32:49;;;;;;;6.43;3.47;;;18.00;99.90;;;;;;5032681;28;20210;-49
2022/08/30 05:35:16;;;;;;;7.85;3.63;;;18.00;99.90;;;;;;5033275;28;20175;-47
2022/08/30 05:37:42;;;;;;;6.55;3.50;;;18.10;99.90;;;;;;5032995;28;20175;-48
2022/08/30 05:40:09;;;;;;;5.20;4.03;;;18.10;99.90;;;;;;5032894;28;20179;-47
2022/08/30 05:42:35;;;;;;;8.90;3.60;;;18.10;99.90;;;;;;5033396;28;20221;-48
2022/08/30 05:45:01;;;;;;;9.00;3.90;;;18.20;99.90;;;;;;5033106;28;20527;-50
2022/08/30 05:47:27;;;;;;;12.50;4.70;;;18.30;99.90;;;;;;5033027;28;20171;-48
2022/08/30 05:49:53;;;;;;;10.93;3.90;;;18.40;99.90;;;;;;5032941;28;20634;-48
2022/08/30 05:52:18;;;;;;;9.80;3.75;;;18.50;99.90;;;;;;5033012;28;20178;-50
2022/08/30 05:54:45;;;;;;;6.20;3.92;;;18.60;99.90;;;;;;5032991;28;20631;-50
2022/08/30 05:57:10;;;;;;;13.32;3.35;;;18.70;99.90;;;;;;5032812;28;20165;-48
2022/08/30 05:59:37;;;;;;;9.70;3.75;;;18.80;99.90;;;;;;5033244;28;20622;-50
2022/08/30 06:02:03;;;;;;;6.07;3.63;;;18.80;99.90;;;;;;5032774;28;20254;-48
2022/08/30 06:04:28;;;;;;;7.22;4.80;;;18.90;99.90;;;;;;5032957;28;20177;-49
2022/08/30 06:06:54;;;;;;;8.75;3.78;;;18.90;99.90;;;;;;5032665;28;20171;-48
2022/08/30 06:09:19;;;;;;;14.70;4.28;;;19.00;99.90;;;;;;5032749;28;20213;-47
2022/08/30 06:11:46;;;;;;;18.42;5.03;;;19.00;99.90;;;;;;5032702;28;20167;-48
2022/08/30 06:14:12;;;;;;;21.40;4.13;;;19.10;99.90;;;;;;4995751;28;1088599;-51
2022/08/30 06:16:39;;;;;;;12.30;3.78;;;19.20;99.90;;;;;;5033596;28;20218;-47
2022/08/30 06:19:08;;;;;;;7.18;3.63;;;19.30;99.90;;;;;;5034120;28;20183;-51
2022/08/30 06:21:35;;;;;;;9.65;3.78;;;19.30;99.90;;;;;;5033834;28;20164;-50
2022/08/30 06:24:03;;;;;;;6.35;3.33;;;19.50;99.90;;;;;;5033457;28;20671;-51
2022/08/30 06:26:29;;;;;;;5.43;3.78;;;19.40;99.90;;;;;;5033490;28;20262;-52
2022/08/30 06:28:56;;;;;;;6.82;3.38;;;19.60;99.90;;;;;;5033393;28;20183;-50
2022/08/30 06:31:25;;;;;;;4.30;2.90;;;19.70;99.90;;;;;;5033353;28;20175;-51
2022/08/30 06:33:51;;;;;;;6.72;3.17;;;19.70;99.90;;;;;;5033188;28;20171;-50
2022/08/30 06:36:19;;;;;;;5.47;3.45;;;19.70;99.90;;;;;;5033287;28;20253;-51
2022/08/30 06:38:49;;;;;;;6.28;3.33;;;19.70;99.90;;;;;;5033027;28;20627;-50
2022/08/30 06:41:17;;;;;;;5.50;3.08;;;19.80;99.90;;;;;;5033035;28;20681;-51
2022/08/30 06:43:43;;;;;;;6.60;3.33;;;20.00;99.90;;;;;;5032482;28;20211;-51
2022/08/30 06:46:12;;;;;;;7.82;3.47;;;20.30;99.90;;;;;;5032966;28;20250;-51
2022/08/30 06:48:37;;;;;;;7.28;3.35;;;20.60;99.90;;;;;;5032900;28;20163;-47
2022/08/30 06:51:03;;;;;;;7.30;3.13;;;20.50;99.90;;;;;;5033258;28;20251;-51
2022/08/30 06:53:30;;;;;;;7.32;3.40;;;20.40;99.90;;;;;;5032814;28;20661;-50
2022/08/30 06:56:00;;;;;;;5.10;3.78;;;20.40;99.90;;;;;;5033128;28;20181;-51
2022/08/30 06:58:27;;;;;;;5.03;3.00;;;20.50;99.90;;;;;;5031557;28;20512;-51
2022/08/30 07:00:53;;;;;;;6.28;3.10;;;20.40;99.90;;;;;;5032980;28;20180;-52
2022/08/30 07:03:19;;;;;;;6.80;3.13;;;20.50;99.90;;;;;;5032915;28;20260;-52
2022/08/30 07:05:47;;;;;;;4.72;3.00;;;20.40;99.90;;;;;;5032673;28;20250;-51
2022/08/30 07:08:13;;;;;;;5.88;2.95;;;20.50;99.90;;;;;;5032696;28;20246;-51
2022/08/30 07:10:40;;;;;;;5.68;3.08;;;20.60;99.90;;;;;;5032547;28;20255;-50
2022/08/30 07:13:07;;;;;;;5.68;3.05;;;20.60;99.90;;;;;;5032978;28;20269;-52
2022/08/30 07:15:33;;;;;;;6.03;4.32;;;20.60;99.90;;;;;;5033138;28;20220;-52
2022/08/30 07:20:43;;;;;;;9.75;3.28;;;21.00;99.90;;;;;;5032483;28;20210;-51
2022/08/30 07:23:10;;;;;;;5.88;3.20;;;21.30;99.90;;;;;;5032336;28;20238;-50
2022/08/30 07:25:37;;;;;;;6.13;3.15;;;21.40;99.90;;;;;;5032909;28;20167;-51
2022/08/30 07:28:04;;;;;;;4.82;3.25;;;21.60;99.90;;;;;;5032733;28;20266;-51
2022/08/30 07:30:30;;;;;;;7.97;3.10;;;21.70;99.90;;;;;;5030983;28;20708;-50
2022/08/30 07:32:56;;;;;;;8.10;2.90;;;21.90;99.90;;;;;;5032515;28;20179;-50
2022/08/30 07:35:22;;;;;;;7.40;3.83;;;22.10;99.90;;;;;;5032090;28;20172;-51
2022/08/30 07:37:47;;;;;;;7.70;2.90;;;22.20;99.90;;;;;;5032204;28;20246;-51
2022/08/30 07:40:13;;;;;;;6.20;2.88;;;22.20;99.90;;;;;;5032124;28;20550;-51
2022/08/30 07:42:39;;;;;;;6.90;2.90;;;22.20;99.90;;;;;;5032004;28;20613;-51
2022/08/30 07:45:07;;;;;;;6.30;3.17;;;22.10;99.90;;;;;;5032496;28;20246;-51
2022/08/30 07:47:32;;;;;;;4.18;2.95;;;22.20;99.90;;;;;;5032293;28;20647;-51
2022/08/30 07:49:59;;;;;;;4.32;2.85;;;22.20;99.90;;;;;;5031987;28;20163;-51
2022/08/30 07:52:26;;;;;;;3.83;2.55;;;22.30;99.90;;;;;;5031937;28;20221;-51
2022/08/30 07:54:53;;;;;;;4.43;2.55;;;22.30;99.90;;;;;;5031786;28;20179;-51
2022/08/30 07:57:19;;;;;;;6.70;2.88;;;22.20;99.90;;;;;;5031895;28;20631;-52
2022/08/30 07:59:45;;;;;;;4.28;2.40;;;22.30;99.90;;;;;;5031751;28;20198;-51
2022/08/30 08:02:10;;;;;;;3.83;2.20;;;22.30;99.90;;;;;;5031813;28;20657;-51
2022/08/30 08:04:36;;;;;;;7.30;2.90;;;22.40;99.90;;;;;;5032040;28;20168;-49
2022/08/30 08:07:02;;;;;;;3.47;2.22;;;22.70;99.90;;;;;;5031700;28;20163;-51
2022/08/30 08:09:27;;;;;;;3.88;2.67;;;22.60;99.90;;;;;;5031763;28;20173;-51
2022/08/30 08:11:53;;;;;;;4.28;2.38;;;22.60;99.90;;;;;;5031714;28;20544;-47
2022/08/30 08:14:20;;;;;;;4.28;2.47;;;22.70;99.90;;;;;;5031564;28;20223;-48
2022/08/30 08:16:47;;;;;;;6.15;2.80;;;22.60;99.90;;;;;;5031575;28;20171;-49
2022/08/30 08:19:12;;;;;;;7.00;2.83;;;22.50;99.90;;;;;;5031879;28;20179;-50
2022/08/30 08:21:38;;;;;;;3.58;2.53;;;22.50;99.90;;;;;;5031633;28;20171;-48
2022/08/30 08:24:04;;;;;;;2.83;2.50;;;22.70;99.90;;;;;;5031867;28;20257;-48
2022/08/30 08:26:32;;;;;;;4.45;2.65;;;22.70;99.90;;;;;;5031652;28;20229;-48
2022/08/30 08:28:58;;;;;;;4.85;2.38;;;22.90;99.90;;;;;;5031543;28;20164;-50
2022/08/30 08:31:26;;;;;;;5.18;2.50;;;22.90;99.90;;;;;;5031416;28;20190;-47
2022/08/30 08:33:51;;;;;;;3.72;2.63;;;23.10;99.90;;;;;;5031484;28;20167;-48
2022/08/30 08:36:17;;;;;;;7.90;2.55;;;23.30;99.90;;;;;;5031396;28;20175;-48
2022/08/30 08:38:43;;;;;;;5.38;2.50;;;23.40;99.90;;;;;;5030174;28;20221;-49
2022/08/30 08:41:38;;;;;;;5.30;2.33;;;23.70;99.90;;;;;;5031420;28;20167;-48
2022/08/30 08:44:21;;;;;;;3.58;2.55;;;23.90;99.90;;;;;;5031848;28;20281;-47
2022/08/30 08:46:49;;;;;;;5.05;2.30;;;24.10;99.90;;;;;;5031434;28;20187;-50
2022/08/30 08:49:15;;;;;;;3.55;2.28;;;24.10;99.90;;;;;;5031363;28;20250;-48
2022/08/30 08:54:58;;;;;;;5.07;2.40;;;24.10;99.90;;;;;;5031635;28;20233;-47
2022/08/30 08:57:33;;;;;;;4.55;2.65;;;24.40;99.90;;;;;;5031552;28;20625;-47
2022/08/30 08:59:59;;;;;;;6.30;2.78;;;24.50;99.90;;;;;;5031239;28;20305;-48
2022/08/30 09:02:29;;;;;;;4.40;2.63;;;24.80;99.90;;;;;;5031137;28;20281;-48
2022/08/30 09:05:00;;;;;;;7.00;2.50;;;24.90;99.90;;;;;;5031336;28;20176;-47
2022/08/30 09:07:31;;;;;;;4.82;2.80;;;25.00;99.90;;;;;;5033850;28;20655;-47
2022/08/30 09:09:59;;;;;;;5.32;2.60;;;25.10;99.90;;;;;;5034739;28;20221;-48
2022/08/30 09:12:26;;;;;;;3.28;2.33;;;25.10;99.90;;;;;;5034937;28;20175;-47
2022/08/30 09:15:17;;;;;;;3.33;2.35;;;25.00;99.90;;;;;;5034775;28;20190;-48
2022/08/30 09:17:49;;;;;;;3.35;2.17;;;25.30;99.90;;;;;;5034629;28;20177;-47
2022/08/30 09:20:44;;;;;;;3.65;2.50;;;25.40;99.90;;;;;;5034896;28;20526;-48
2022/08/30 09:23:26;;;;;;;4.00;2.35;;;25.60;99.90;;;;;;5034450;28;20222;-48
2022/08/30 09:25:58;;;;;;;4.55;2.50;;;25.70;99.90;;;;;;5034813;28;20198;-48
2022/08/30 09:28:27;;;;;;;3.97;2.80;;;25.50;99.90;;;;;;5034664;28;20181;-47
2022/08/30 09:31:21;;;;;;;3.42;2.10;;;25.70;99.90;;;;;;5034672;28;20179;-47
2022/08/30 09:34:02;;;;;;;3.22;2.05;;;26.10;99.90;;;;;;5034677;28;20166;-50
2022/08/30 09:36:52;;;;;;;4.78;3.03;;;26.30;99.90;;;;;;5034225;28;20201;-48
2022/08/30 09:39:18;;;;;;;4.15;2.42;;;26.30;99.90;;;;;;5034491;28;20210;-48
2022/08/30 09:41:48;;;;;;;5.85;2.60;;;26.20;99.90;;;;;;5034141;28;20174;-48
2022/08/30 09:44:23;;;;;;;4.07;2.30;;;26.30;99.90;;;;;;5034213;28;20245;-47
2022/08/30 09:46:52;;;;;;;5.28;2.30;;;26.30;99.90;;;;;;5034169;28;20649;-48
2022/08/30 09:49:32;;;;;;;2.95;2.08;;;26.40;99.90;;;;;;5034123;28;20182;-47
2022/08/30 09:52:12;;;;;;;3.83;2.50;;;26.50;99.90;;;;;;5034254;28;20175;-48
2022/08/30 09:54:52;;;;;;;4.05;2.63;;;26.30;99.90;;;;;;5034258;28;20532;-49
2022/08/30 09:57:46;;;;;;;6.60;2.67;;;26.50;99.90;;;;;;5032739;28;20163;-48
2022/08/30 10:00:22;;;;;;;5.40;2.75;;;26.80;99.90;;;;;;5033762;28;20170;-47
2022/08/30 10:02:47;;;;;;;3.28;2.30;;;26.90;99.90;;;;;;5033760;28;20206;-51
2022/08/30 10:05:41;;;;;;;3.53;2.80;;;27.00;99.90;;;;;;5033898;28;20652;-49
2022/08/30 10:08:28;;;;;;;6.53;3.25;;;27.00;99.90;;;;;;5034038;28;20185;-47
2022/08/30 10:11:15;;;;;;;4.75;2.85;;;26.80;99.90;;;;;;5033726;28;20189;-49
2022/08/30 10:13:50;;;;;;;3.08;2.28;;;26.70;99.90;;;;;;5033581;28;20225;-51
2022/08/30 10:16:39;;;;;;;4.15;2.55;;;26.50;99.90;;;;;;5033682;28;20217;-51
2022/08/30 10:19:29;;;;;;;5.00;2.47;;;26.70;99.90;;;;;;5032728;28;20503;-51
2022/08/30 10:22:04;;;;;;;2.80;2.60;;;26.90;99.90;;;;;;5033512;28;20650;-50
2022/08/30 10:24:36;;;;;;;4.55;2.67;;;27.40;99.90;;;;;;5033426;28;20166;-51
2022/08/30 10:27:26;;;;;;;4.70;2.67;;;27.20;99.00;;;;;;5033819;28;20163;-51
2022/08/30 10:30:13;;;;;;;4.65;2.75;;;26.90;99.00;;;;;;5032993;28;20193;-51
2022/08/30 10:32:44;;;;;;;5.95;2.33;;;26.80;99.90;;;;;;5033176;28;20716;-51
2022/08/30 10:35:26;;;;;;;3.28;2.58;;;26.70;99.90;;;;;;5033316;28;20527;-51
2022/08/30 10:37:58;;;;;;;6.53;2.70;;;26.60;99.90;;;;;;5033470;28;20196;-51
2022/08/30 10:43:42;;;;;;;3.33;2.53;;;27.10;99.50;;;;;;5033190;28;20344;-52
2022/08/30 10:46:40;;;;;;;6.25;2.60;;;27.40;99.90;;;;;;5033235;28;20243;-52
2022/08/30 10:49:14;;;;;;;5.18;2.85;;;27.40;99.90;;;;;;5033257;28;20162;-51
2022/08/30 10:51:44;;;;;;;3.28;2.63;;;27.40;99.90;;;;;;5032925;28;20638;-49
2022/08/30 10:54:18;;;;;;;3.03;2.60;;;27.30;97.90;;;;;;5033116;28;20197;-50
2022/08/30 10:56:47;;;;;;;6.68;3.30;;;27.60;98.30;;;;;;5032770;28;20174;-49
2022/08/30 10:59:16;;;;;;;4.18;2.60;;;28.00;98.60;;;;;;5032873;28;20250;-50
2022/08/30 11:02:03;;;;;;;4.20;2.42;;;28.20;97.40;;;;;;5032994;28;20175;-49
2022/08/30 11:04:53;;;;;;;6.57;2.92;;;28.10;99.90;;;;;;5032711;28;20542;-49
2022/08/30 11:07:46;;;;;;;6.93;2.72;;;27.90;99.90;;;;;;5032670;28;20523;-51
2022/08/30 11:10:30;;;;;;;10.77;3.75;;;28.00;99.90;;;;;;5032499;28;20635;-47
2022/08/30 11:12:58;;;;;;;6.10;2.85;;;28.20;99.90;;;;;;5032311;28;20672;-48
2022/08/30 11:15:32;;;;;;;5.30;2.28;;;28.00;99.90;;;;;;5032529;28;20627;-48
2022/08/30 11:18:07;;;;;;;4.28;2.85;;;28.00;99.90;;;;;;5032418;28;20303;-47
2022/08/30 11:20:40;;;;;;;4.68;2.55;;;28.00;99.90;;;;;;5032682;28;20605;-49
2022/08/30 11:23:12;;;;;;;4.00;2.75;;;28.00;99.90;;;;;;5032218;28;20637;-47
2022/08/30 11:25:52;;;;;;;5.82;2.95;;;28.10;99.90;;;;;;5032321;28;20217;-48
2022/08/30 11:28:36;;;;;;;6.28;3.03;;;28.00;99.10;;;;;;5032513;28;20252;-47
2022/08/30 11:31:10;;;;;;;4.82;2.42;;;28.40;99.40;;;;;;5032529;28;20167;-47
2022/08/30 11:33:45;;;;;;;7.20;3.20;;;28.70;99.20;;;;;;5032510;28;20173;-48
2022/08/30 11:36:31;;;;;;;8.38;3.05;;;28.50;99.60;;;;;;5032157;28;20221;-48
2022/08/30 11:39:09;;;;;;;4.95;2.75;;;28.50;98.60;;;;;;5032030;28;20166;-48
2022/08/30 11:41:46;;;;;;;4.28;2.50;;;28.60;99.10;;;;;;5032433;28;20186;-48
2022/08/30 11:44:21;;;;;;;4.13;2.80;;;28.50;98.70;;;;;;5032205;28;20225;-48
2022/08/30 11:46:48;;;;;;;3.45;3.00;;;28.70;99.30;;;;;;5032076;28;20660;-48
2022/08/30 11:49:17;;;;;;;4.53;2.95;;;28.90;98.60;;;;;;5032230;28;20185;-48
2022/08/30 11:52:10;;;;;;;6.38;2.53;;;28.80;99.90;;;;;;5031942;28;20159;-48
2022/08/30 11:55:01;;;;;;;6.90;3.10;;;28.50;98.10;;;;;;5031960;28;20167;-50
2022/08/30 11:57:42;;;;;;;5.03;2.60;;;28.20;98.20;;;;;;5031568;28;20224;-48
2022/08/30 12:00:33;;;;;;;5.43;2.90;;;28.00;99.30;;;;;;5031863;28;20173;-49
2022/08/30 12:03:13;;;;;;;6.50;3.25;;;28.50;99.90;;;;;;5031732;28;20203;-48
2022/08/30 12:05:43;;;;;;;3.47;2.75;;;28.50;99.60;;;;;;5031804;28;20173;-50
2022/08/30 12:08:26;;;;;;;5.75;2.97;;;28.60;99.90;;;;;;5031736;28;20163;-48
2022/08/30 12:11:01;;;;;;;6.97;2.50;;;28.70;99.80;;;;;;5031741;28;20205;-47
2022/08/30 12:13:47;;;;;;;8.10;3.08;;;28.60;99.90;;;;;;5031556;28;20221;-49
2022/08/30 12:16:20;;;;;;;3.40;2.60;;;28.80;99.90;;;;;;5027781;28;20241;-48
2022/08/30 12:18:52;;;;;;;4.72;3.10;;;29.00;99.90;;;;;;5031503;28;20167;-51
2022/08/30 12:21:20;;;;;;;6.72;3.13;;;28.80;99.30;;;;;;5031638;28;20167;-48
2022/08/30 12:24:18;;;;;;;6.75;2.47;;;28.70;99.60;;;;;;5031467;28;20199;-49
2022/08/30 12:26:46;;;;;;;4.78;2.70;;;28.80;99.80;;;;;;5031557;28;20511;-51
2022/08/30 12:29:19;;;;;;;3.42;3.00;;;28.20;99.80;;;;;;5031605;28;20179;-50
2022/08/30 12:31:57;;;;;;;4.00;2.83;;;28.10;99.90;;;;;;5031406;28;20253;-51
2022/08/30 12:34:32;;;;;;;6.68;2.92;;;28.60;99.90;;;;;;5031504;28;20246;-51
2022/08/30 12:37:03;;;;;;;7.57;2.85;;;28.80;99.90;;;;;;5031500;28;20198;-49
2022/08/30 12:39:41;;;;;;;4.40;2.63;;;29.00;99.20;;;;;;5031663;28;20177;-50
2022/08/30 12:42:26;;;;;;;5.82;2.67;;;29.20;99.70;;;;;;5033682;28;20225;-49
2022/08/30 12:44:56;;;;;;;7.88;3.08;;;28.60;99.30;;;;;;5035267;28;20178;-51
2022/08/30 12:47:29;;;;;;;5.00;2.72;;;28.40;99.60;;;;;;5035530;28;20166;-51
2022/08/30 12:49:56;;;;;;;5.68;3.38;;;28.30;99.60;;;;;;5035427;28;20237;-51
2022/08/30 12:52:33;;;;;;;4.75;3.03;;;28.20;99.90;;;;;;5035351;28;20328;-51
2022/08/30 12:55:18;;;;;;;8.85;3.65;;;28.50;99.90;;;;;;5035380;28;20170;-51
2022/08/30 12:57:58;;;;;;;2.65;2.38;;;28.40;99.60;;;;;;5035035;28;20194;-51
2022/08/30 13:00:40;;;;;;;7.05;2.53;;;28.60;99.50;;;;;;5034904;28;20174;-50
2022/08/30 13:03:28;;;;;;;4.55;2.95;;;28.70;99.50;;;;;;5033607;28;20585;-49
2022/08/30 13:05:56;;;;;;;4.60;2.90;;;28.30;99.90;;;;;;5034944;28;20174;-51
2022/08/30 13:08:26;;;;;;;4.35;2.60;;;28.70;99.90;;;;;;5034828;28;20177;-47
2022/08/30 13:11:05;;;;;;;6.38;3.05;;;28.80;99.90;;;;;;5034843;28;20178;-48